sensor_id;sensor_type;location;lat;lon;timestamp;P1;durP1;ratioP1;P2;durP2;ratioP2
68438;SDS011;55421;51.600;5.718;2023-04-26T00:02:25;10.50;;;4.80;;
68438;SDS011;55421;51.600;5.718;2023-04-26T00:04:53;10.40;;;5.00;;
68438;SDS011;55421;51.600;5.718;2023-04-26T00:07:22;10.40;;;4.90;;
68438;SDS011;55421;51.600;5.718;2023-04-26T00:09:50;8.90;;;4.50;;
68438;SDS011;55421;51.600;5.718;2023-04-26T00:12:20;14.10;;;5.50;;
68438;SDS011;55421;51.600;5.718;2023-04-26T00:14:47;10.40;;;4.70;;
68438;SDS011;55421;51.600;5.718;2023-04-26T00:17:15;9.10;;;4.80;;
68438;SDS011;55421;51.600;5.718;2023-04-26T00:19:41;12.10;;;5.50;;
68438;SDS011;55421;51.600;5.718;2023-04-26T00:22:08;10.40;;;4.80;;
68438;SDS011;55421;51.600;5.718;2023-04-26T00:24:34;11.30;;;5.60;;
68438;SDS011;55421;51.600;5.718;2023-04-26T00:27:01;11.50;;;5.90;;
68438;SDS011;55421;51.600;5.718;2023-04-26T00:29:30;8.90;;;5.30;;
68438;SDS011;55421;51.600;5.718;2023-04-26T00:31:57;9.20;;;5.20;;
68438;SDS011;55421;51.600;5.718;2023-04-26T00:34:23;11.50;;;5.60;;
68438;SDS011;55421;51.600;5.718;2023-04-26T00:36:50;10.60;;;5.80;;
68438;SDS011;55421;51.600;5.718;2023-04-26T00:39:16;11.60;;;5.60;;
68438;SDS011;55421;51.600;5.718;2023-04-26T00:41:42;8.60;;;5.50;;
68438;SDS011;55421;51.600;5.718;2023-04-26T00:44:09;10.40;;;5.40;;
68438;SDS011;55421;51.600;5.718;2023-04-26T00:46:36;14.50;;;6.10;;
68438;SDS011;55421;51.600;5.718;2023-04-26T00:49:02;10.60;;;5.40;;
68438;SDS011;55421;51.600;5.718;2023-04-26T00:51:29;11.60;;;5.70;;
68438;SDS011;55421;51.600;5.718;2023-04-26T00:53:56;12.60;;;5.70;;
68438;SDS011;55421;51.600;5.718;2023-04-26T00:56:24;10.10;;;5.60;;
68438;SDS011;55421;51.600;5.718;2023-04-26T00:58:51;11.20;;;6.00;;
68438;SDS011;55421;51.600;5.718;2023-04-26T01:01:18;10.10;;;6.00;;
68438;SDS011;55421;51.600;5.718;2023-04-26T01:03:45;11.60;;;6.30;;
68438;SDS011;55421;51.600;5.718;2023-04-26T01:06:12;15.70;;;6.20;;
68438;SDS011;55421;51.600;5.718;2023-04-26T01:08:40;10.30;;;6.00;;
68438;SDS011;55421;51.600;5.718;2023-04-26T01:11:07;12.60;;;6.40;;
68438;SDS011;55421;51.600;5.718;2023-04-26T01:13:34;12.80;;;6.30;;
68438;SDS011;55421;51.600;5.718;2023-04-26T01:16:03;15.50;;;6.30;;
68438;SDS011;55421;51.600;5.718;2023-04-26T01:18:33;10.80;;;6.30;;
68438;SDS011;55421;51.600;5.718;2023-04-26T01:21:01;9.00;;;5.00;;
68438;SDS011;55421;51.600;5.718;2023-04-26T01:23:30;14.30;;;5.90;;
68438;SDS011;55421;51.600;5.718;2023-04-26T01:25:57;10.50;;;5.30;;
68438;SDS011;55421;51.600;5.718;2023-04-26T01:28:23;8.00;;;5.00;;
68438;SDS011;55421;51.600;5.718;2023-04-26T01:30:50;9.80;;;5.10;;
68438;SDS011;55421;51.600;5.718;2023-04-26T01:33:16;8.40;;;5.00;;
68438;SDS011;55421;51.600;5.718;2023-04-26T01:35:43;10.10;;;5.30;;
68438;SDS011;55421;51.600;5.718;2023-04-26T01:38:09;9.90;;;4.70;;
68438;SDS011;55421;51.600;5.718;2023-04-26T01:40:36;10.40;;;6.10;;
68438;SDS011;55421;51.600;5.718;2023-04-26T01:43:03;10.40;;;5.50;;
68438;SDS011;55421;51.600;5.718;2023-04-26T01:45:29;8.40;;;5.10;;
68438;SDS011;55421;51.600;5.718;2023-04-26T01:47:56;8.00;;;5.10;;
68438;SDS011;55421;51.600;5.718;2023-04-26T01:50:23;10.60;;;6.30;;
68438;SDS011;55421;51.600;5.718;2023-04-26T01:52:49;14.40;;;6.30;;
68438;SDS011;55421;51.600;5.718;2023-04-26T01:55:16;10.50;;;6.20;;
68438;SDS011;55421;51.600;5.718;2023-04-26T01:57:43;12.90;;;6.50;;
68438;SDS011;55421;51.600;5.718;2023-04-26T02:00:10;10.20;;;5.80;;
68438;SDS011;55421;51.600;5.718;2023-04-26T02:02:37;12.80;;;6.20;;
68438;SDS011;55421;51.600;5.718;2023-04-26T02:05:04;12.60;;;6.20;;
68438;SDS011;55421;51.600;5.718;2023-04-26T02:07:30;13.10;;;6.50;;
68438;SDS011;55421;51.600;5.718;2023-04-26T02:09:57;13.40;;;5.80;;
68438;SDS011;55421;51.600;5.718;2023-04-26T02:12:24;14.00;;;6.00;;
68438;SDS011;55421;51.600;5.718;2023-04-26T02:14:50;8.00;;;5.40;;
68438;SDS011;55421;51.600;5.718;2023-04-26T02:17:16;10.20;;;5.70;;
68438;SDS011;55421;51.600;5.718;2023-04-26T02:19:43;11.80;;;5.40;;
68438;SDS011;55421;51.600;5.718;2023-04-26T02:22:09;15.70;;;6.10;;
68438;SDS011;55421;51.600;5.718;2023-04-26T02:24:36;10.00;;;5.70;;
68438;SDS011;55421;51.600;5.718;2023-04-26T02:27:03;10.00;;;5.20;;
68438;SDS011;55421;51.600;5.718;2023-04-26T02:29:30;15.20;;;5.90;;
68438;SDS011;55421;51.600;5.718;2023-04-26T02:31:57;10.60;;;5.40;;
68438;SDS011;55421;51.600;5.718;2023-04-26T02:34:24;22.40;;;6.50;;
68438;SDS011;55421;51.600;5.718;2023-04-26T02:36:50;10.40;;;5.40;;
68438;SDS011;55421;51.600;5.718;2023-04-26T02:39:17;12.80;;;5.80;;
68438;SDS011;55421;51.600;5.718;2023-04-26T02:41:44;16.10;;;7.30;;
68438;SDS011;55421;51.600;5.718;2023-04-26T02:44:10;13.80;;;6.60;;
68438;SDS011;55421;51.600;5.718;2023-04-26T02:46:37;14.80;;;6.50;;
68438;SDS011;55421;51.600;5.718;2023-04-26T02:49:04;13.70;;;6.50;;
68438;SDS011;55421;51.600;5.718;2023-04-26T02:51:31;11.90;;;6.10;;
68438;SDS011;55421;51.600;5.718;2023-04-26T02:53:58;13.00;;;6.10;;
68438;SDS011;55421;51.600;5.718;2023-04-26T02:56:25;17.30;;;6.60;;
68438;SDS011;55421;51.600;5.718;2023-04-26T02:58:51;15.30;;;6.70;;
68438;SDS011;55421;51.600;5.718;2023-04-26T03:01:18;13.90;;;6.10;;
68438;SDS011;55421;51.600;5.718;2023-04-26T03:03:44;12.30;;;5.90;;
68438;SDS011;55421;51.600;5.718;2023-04-26T03:06:11;14.70;;;6.00;;
68438;SDS011;55421;51.600;5.718;2023-04-26T03:08:37;11.60;;;6.10;;
68438;SDS011;55421;51.600;5.718;2023-04-26T03:11:04;9.80;;;5.90;;
68438;SDS011;55421;51.600;5.718;2023-04-26T03:13:30;12.50;;;5.60;;
68438;SDS011;55421;51.600;5.718;2023-04-26T03:15:57;14.50;;;6.20;;
68438;SDS011;55421;51.600;5.718;2023-04-26T03:18:23;14.90;;;5.70;;
68438;SDS011;55421;51.600;5.718;2023-04-26T03:20:51;14.10;;;6.40;;
68438;SDS011;55421;51.600;5.718;2023-04-26T03:23:17;11.40;;;5.50;;
68438;SDS011;55421;51.600;5.718;2023-04-26T03:25:44;10.00;;;5.80;;
68438;SDS011;55421;51.600;5.718;2023-04-26T03:28:11;16.30;;;7.00;;
68438;SDS011;55421;51.600;5.718;2023-04-26T03:30:37;17.80;;;6.60;;
68438;SDS011;55421;51.600;5.718;2023-04-26T03:33:04;15.40;;;7.70;;
68438;SDS011;55421;51.600;5.718;2023-04-26T03:35:31;15.20;;;6.80;;
68438;SDS011;55421;51.600;5.718;2023-04-26T03:37:57;12.30;;;6.30;;
68438;SDS011;55421;51.600;5.718;2023-04-26T03:40:23;16.30;;;6.70;;
68438;SDS011;55421;51.600;5.718;2023-04-26T03:42:50;12.50;;;6.30;;
68438;SDS011;55421;51.600;5.718;2023-04-26T03:45:17;10.80;;;6.50;;
68438;SDS011;55421;51.600;5.718;2023-04-26T03:47:44;14.60;;;6.50;;
68438;SDS011;55421;51.600;5.718;2023-04-26T03:50:10;13.60;;;5.70;;
68438;SDS011;55421;51.600;5.718;2023-04-26T03:52:37;10.10;;;6.30;;
68438;SDS011;55421;51.600;5.718;2023-04-26T03:55:04;16.50;;;5.70;;
68438;SDS011;55421;51.600;5.718;2023-04-26T03:57:35;15.30;;;6.00;;
68438;SDS011;55421;51.600;5.718;2023-04-26T04:00:01;10.10;;;5.30;;
68438;SDS011;55421;51.600;5.718;2023-04-26T04:02:33;10.80;;;5.10;;
68438;SDS011;55421;51.600;5.718;2023-04-26T04:05:00;12.20;;;6.00;;
68438;SDS011;55421;51.600;5.718;2023-04-26T04:07:26;11.00;;;6.20;;
68438;SDS011;55421;51.600;5.718;2023-04-26T04:09:53;12.60;;;5.80;;
68438;SDS011;55421;51.600;5.718;2023-04-26T04:12:19;17.20;;;6.30;;
68438;SDS011;55421;51.600;5.718;2023-04-26T04:14:48;13.30;;;6.00;;
68438;SDS011;55421;51.600;5.718;2023-04-26T04:17:14;12.50;;;5.50;;
68438;SDS011;55421;51.600;5.718;2023-04-26T04:19:41;12.60;;;6.30;;
68438;SDS011;55421;51.600;5.718;2023-04-26T04:22:07;11.30;;;6.00;;
68438;SDS011;55421;51.600;5.718;2023-04-26T04:24:34;13.10;;;6.10;;
68438;SDS011;55421;51.600;5.718;2023-04-26T04:27:00;12.80;;;6.40;;
68438;SDS011;55421;51.600;5.718;2023-04-26T04:29:28;11.80;;;5.90;;
68438;SDS011;55421;51.600;5.718;2023-04-26T04:31:56;13.30;;;6.90;;
68438;SDS011;55421;51.600;5.718;2023-04-26T04:34:22;11.40;;;6.50;;
68438;SDS011;55421;51.600;5.718;2023-04-26T04:36:49;11.20;;;5.90;;
68438;SDS011;55421;51.600;5.718;2023-04-26T04:39:18;12.40;;;6.20;;
68438;SDS011;55421;51.600;5.718;2023-04-26T04:41:45;13.90;;;5.90;;
68438;SDS011;55421;51.600;5.718;2023-04-26T04:44:14;14.90;;;5.70;;
68438;SDS011;55421;51.600;5.718;2023-04-26T04:46:42;11.80;;;5.50;;
68438;SDS011;55421;51.600;5.718;2023-04-26T04:49:10;12.10;;;6.40;;
68438;SDS011;55421;51.600;5.718;2023-04-26T04:51:38;14.40;;;6.50;;
68438;SDS011;55421;51.600;5.718;2023-04-26T04:54:25;14.40;;;6.20;;
68438;SDS011;55421;51.600;5.718;2023-04-26T04:56:52;10.80;;;6.20;;
68438;SDS011;55421;51.600;5.718;2023-04-26T04:59:18;16.10;;;6.80;;
68438;SDS011;55421;51.600;5.718;2023-04-26T05:01:45;13.10;;;6.00;;
68438;SDS011;55421;51.600;5.718;2023-04-26T05:04:11;13.20;;;6.00;;
68438;SDS011;55421;51.600;5.718;2023-04-26T05:06:38;13.30;;;6.40;;
68438;SDS011;55421;51.600;5.718;2023-04-26T05:09:05;11.30;;;6.30;;
68438;SDS011;55421;51.600;5.718;2023-04-26T05:11:31;14.40;;;6.60;;
68438;SDS011;55421;51.600;5.718;2023-04-26T05:13:58;15.70;;;7.00;;
68438;SDS011;55421;51.600;5.718;2023-04-26T05:16:25;20.00;;;7.20;;
68438;SDS011;55421;51.600;5.718;2023-04-26T05:18:51;15.90;;;6.50;;
68438;SDS011;55421;51.600;5.718;2023-04-26T05:21:18;12.60;;;7.00;;
68438;SDS011;55421;51.600;5.718;2023-04-26T05:23:45;13.10;;;7.50;;
68438;SDS011;55421;51.600;5.718;2023-04-26T05:26:15;14.70;;;7.80;;
68438;SDS011;55421;51.600;5.718;2023-04-26T05:28:42;15.10;;;7.70;;
68438;SDS011;55421;51.600;5.718;2023-04-26T05:31:09;14.10;;;7.60;;
68438;SDS011;55421;51.600;5.718;2023-04-26T05:33:36;14.90;;;7.40;;
68438;SDS011;55421;51.600;5.718;2023-04-26T05:36:03;18.20;;;9.00;;
68438;SDS011;55421;51.600;5.718;2023-04-26T05:38:29;16.20;;;8.60;;
68438;SDS011;55421;51.600;5.718;2023-04-26T05:40:56;15.70;;;7.60;;
68438;SDS011;55421;51.600;5.718;2023-04-26T05:43:22;16.50;;;8.30;;
68438;SDS011;55421;51.600;5.718;2023-04-26T05:45:50;19.20;;;8.50;;
68438;SDS011;55421;51.600;5.718;2023-04-26T05:48:21;13.90;;;8.10;;
68438;SDS011;55421;51.600;5.718;2023-04-26T05:50:50;13.90;;;8.10;;
68438;SDS011;55421;51.600;5.718;2023-04-26T05:53:18;20.00;;;8.40;;
68438;SDS011;55421;51.600;5.718;2023-04-26T05:55:45;16.70;;;8.90;;
68438;SDS011;55421;51.600;5.718;2023-04-26T05:58:13;14.80;;;8.30;;
68438;SDS011;55421;51.600;5.718;2023-04-26T06:00:40;20.70;;;9.60;;
68438;SDS011;55421;51.600;5.718;2023-04-26T06:03:07;16.40;;;8.60;;
68438;SDS011;55421;51.600;5.718;2023-04-26T06:05:35;15.10;;;7.80;;
68438;SDS011;55421;51.600;5.718;2023-04-26T06:08:04;13.80;;;7.60;;
68438;SDS011;55421;51.600;5.718;2023-04-26T06:10:31;14.40;;;8.00;;
68438;SDS011;55421;51.600;5.718;2023-04-26T06:12:57;14.50;;;7.70;;
68438;SDS011;55421;51.600;5.718;2023-04-26T06:15:24;17.40;;;7.70;;
68438;SDS011;55421;51.600;5.718;2023-04-26T06:17:52;15.50;;;8.10;;
68438;SDS011;55421;51.600;5.718;2023-04-26T06:20:19;19.00;;;8.60;;
68438;SDS011;55421;51.600;5.718;2023-04-26T06:22:46;16.50;;;8.40;;
68438;SDS011;55421;51.600;5.718;2023-04-26T06:25:12;16.80;;;8.80;;
68438;SDS011;55421;51.600;5.718;2023-04-26T06:27:39;18.90;;;8.90;;
68438;SDS011;55421;51.600;5.718;2023-04-26T06:30:06;21.90;;;9.10;;
68438;SDS011;55421;51.600;5.718;2023-04-26T06:32:33;15.40;;;7.60;;
68438;SDS011;55421;51.600;5.718;2023-04-26T06:35:00;16.30;;;7.90;;
68438;SDS011;55421;51.600;5.718;2023-04-26T06:37:27;15.30;;;7.90;;
68438;SDS011;55421;51.600;5.718;2023-04-26T06:39:53;15.90;;;7.90;;
68438;SDS011;55421;51.600;5.718;2023-04-26T06:42:20;14.40;;;7.70;;
68438;SDS011;55421;51.600;5.718;2023-04-26T06:44:46;14.60;;;7.60;;
68438;SDS011;55421;51.600;5.718;2023-04-26T06:47:13;15.20;;;7.20;;
68438;SDS011;55421;51.600;5.718;2023-04-26T06:49:39;19.10;;;7.70;;
68438;SDS011;55421;51.600;5.718;2023-04-26T06:52:06;12.20;;;6.60;;
68438;SDS011;55421;51.600;5.718;2023-04-26T06:54:33;12.80;;;7.50;;
68438;SDS011;55421;51.600;5.718;2023-04-26T06:56:59;9.60;;;6.50;;
68438;SDS011;55421;51.600;5.718;2023-04-26T06:59:26;13.50;;;6.50;;
68438;SDS011;55421;51.600;5.718;2023-04-26T07:01:53;12.50;;;6.00;;
68438;SDS011;55421;51.600;5.718;2023-04-26T07:04:20;11.50;;;6.30;;
68438;SDS011;55421;51.600;5.718;2023-04-26T07:06:46;12.80;;;6.30;;
68438;SDS011;55421;51.600;5.718;2023-04-26T07:09:13;16.50;;;6.70;;
68438;SDS011;55421;51.600;5.718;2023-04-26T07:11:39;16.80;;;7.00;;
68438;SDS011;55421;51.600;5.718;2023-04-26T07:14:06;10.00;;;6.20;;
68438;SDS011;55421;51.600;5.718;2023-04-26T07:16:32;14.20;;;6.20;;
68438;SDS011;55421;51.600;5.718;2023-04-26T07:18:59;13.10;;;6.40;;
68438;SDS011;55421;51.600;5.718;2023-04-26T07:21:26;10.90;;;6.80;;
68438;SDS011;55421;51.600;5.718;2023-04-26T07:23:56;12.20;;;6.00;;
68438;SDS011;55421;51.600;5.718;2023-04-26T07:26:24;15.10;;;5.70;;
68438;SDS011;55421;51.600;5.718;2023-04-26T07:28:54;11.20;;;5.60;;
68438;SDS011;55421;51.600;5.718;2023-04-26T07:31:21;12.70;;;6.00;;
68438;SDS011;55421;51.600;5.718;2023-04-26T07:33:48;9.10;;;4.30;;
68438;SDS011;55421;51.600;5.718;2023-04-26T07:36:14;9.60;;;4.00;;
68438;SDS011;55421;51.600;5.718;2023-04-26T07:38:41;9.40;;;4.60;;
68438;SDS011;55421;51.600;5.718;2023-04-26T07:41:07;11.40;;;4.40;;
68438;SDS011;55421;51.600;5.718;2023-04-26T07:43:34;9.40;;;4.50;;
68438;SDS011;55421;51.600;5.718;2023-04-26T07:46:01;8.00;;;4.60;;
68438;SDS011;55421;51.600;5.718;2023-04-26T07:48:28;10.40;;;4.80;;
68438;SDS011;55421;51.600;5.718;2023-04-26T07:50:54;9.00;;;4.00;;
68438;SDS011;55421;51.600;5.718;2023-04-26T07:53:21;6.10;;;3.50;;
68438;SDS011;55421;51.600;5.718;2023-04-26T07:55:51;5.50;;;3.20;;
68438;SDS011;55421;51.600;5.718;2023-04-26T07:58:17;7.10;;;3.80;;
68438;SDS011;55421;51.600;5.718;2023-04-26T08:00:44;8.10;;;3.00;;
68438;SDS011;55421;51.600;5.718;2023-04-26T08:03:14;3.80;;;2.00;;
68438;SDS011;55421;51.600;5.718;2023-04-26T08:05:42;3.30;;;1.80;;
68438;SDS011;55421;51.600;5.718;2023-04-26T08:08:09;11.90;;;3.40;;
68438;SDS011;55421;51.600;5.718;2023-04-26T08:10:39;6.20;;;2.70;;
68438;SDS011;55421;51.600;5.718;2023-04-26T08:13:06;5.80;;;2.90;;
68438;SDS011;55421;51.600;5.718;2023-04-26T08:15:33;8.10;;;3.30;;
68438;SDS011;55421;51.600;5.718;2023-04-26T08:18:00;5.20;;;3.90;;
68438;SDS011;55421;51.600;5.718;2023-04-26T08:20:26;7.50;;;4.00;;
68438;SDS011;55421;51.600;5.718;2023-04-26T08:22:56;7.40;;;3.10;;
68438;SDS011;55421;51.600;5.718;2023-04-26T08:25:23;4.40;;;2.50;;
68438;SDS011;55421;51.600;5.718;2023-04-26T08:27:50;4.90;;;2.20;;
68438;SDS011;55421;51.600;5.718;2023-04-26T08:30:18;2.20;;;1.30;;
68438;SDS011;55421;51.600;5.718;2023-04-26T08:32:45;5.20;;;1.90;;
68438;SDS011;55421;51.600;5.718;2023-04-26T08:35:11;6.60;;;2.70;;
68438;SDS011;55421;51.600;5.718;2023-04-26T08:37:38;6.50;;;2.40;;
68438;SDS011;55421;51.600;5.718;2023-04-26T08:40:05;6.10;;;2.00;;
68438;SDS011;55421;51.600;5.718;2023-04-26T08:42:42;6.00;;;2.30;;
68438;SDS011;55421;51.600;5.718;2023-04-26T08:45:09;4.30;;;2.50;;
68438;SDS011;55421;51.600;5.718;2023-04-26T08:50:11;5.40;;;2.60;;
68438;SDS011;55421;51.600;5.718;2023-04-26T08:52:41;5.80;;;2.70;;
68438;SDS011;55421;51.600;5.718;2023-04-26T08:55:10;5.00;;;1.90;;
68438;SDS011;55421;51.600;5.718;2023-04-26T08:57:38;6.10;;;3.00;;
68438;SDS011;55421;51.600;5.718;2023-04-26T09:00:06;3.80;;;2.50;;
68438;SDS011;55421;51.600;5.718;2023-04-26T09:02:39;5.50;;;2.20;;
68438;SDS011;55421;51.600;5.718;2023-04-26T09:05:09;6.10;;;2.80;;
68438;SDS011;55421;51.600;5.718;2023-04-26T09:07:41;7.20;;;2.40;;
68438;SDS011;55421;51.600;5.718;2023-04-26T09:10:13;4.90;;;2.70;;
68438;SDS011;55421;51.600;5.718;2023-04-26T09:12:50;5.60;;;2.50;;
68438;SDS011;55421;51.600;5.718;2023-04-26T09:15:24;8.80;;;2.90;;
68438;SDS011;55421;51.600;5.718;2023-04-26T09:17:52;5.50;;;2.80;;
68438;SDS011;55421;51.600;5.718;2023-04-26T09:20:23;8.10;;;2.80;;
68438;SDS011;55421;51.600;5.718;2023-04-26T09:23:06;4.00;;;2.30;;
68438;SDS011;55421;51.600;5.718;2023-04-26T09:25:35;7.20;;;2.50;;
68438;SDS011;55421;51.600;5.718;2023-04-26T09:28:03;6.30;;;2.70;;
68438;SDS011;55421;51.600;5.718;2023-04-26T09:30:44;4.30;;;2.50;;
68438;SDS011;55421;51.600;5.718;2023-04-26T09:33:11;8.50;;;3.10;;
68438;SDS011;55421;51.600;5.718;2023-04-26T09:35:39;5.50;;;2.90;;
68438;SDS011;55421;51.600;5.718;2023-04-26T09:38:11;3.50;;;2.40;;
68438;SDS011;55421;51.600;5.718;2023-04-26T09:40:46;4.70;;;2.00;;
68438;SDS011;55421;51.600;5.718;2023-04-26T09:43:16;3.70;;;2.40;;
68438;SDS011;55421;51.600;5.718;2023-04-26T09:48:20;5.80;;;2.20;;
68438;SDS011;55421;51.600;5.718;2023-04-26T09:50:50;4.10;;;2.20;;
68438;SDS011;55421;51.600;5.718;2023-04-26T09:53:35;4.60;;;2.30;;
68438;SDS011;55421;51.600;5.718;2023-04-26T09:56:16;5.40;;;2.70;;
68438;SDS011;55421;51.600;5.718;2023-04-26T09:58:58;5.60;;;2.90;;
68438;SDS011;55421;51.600;5.718;2023-04-26T10:01:27;3.90;;;2.70;;
68438;SDS011;55421;51.600;5.718;2023-04-26T10:03:55;4.70;;;2.40;;
68438;SDS011;55421;51.600;5.718;2023-04-26T10:06:23;6.40;;;2.30;;
68438;SDS011;55421;51.600;5.718;2023-04-26T10:08:50;5.80;;;2.30;;
68438;SDS011;55421;51.600;5.718;2023-04-26T10:11:17;3.20;;;2.20;;
68438;SDS011;55421;51.600;5.718;2023-04-26T10:13:43;2.70;;;2.40;;
68438;SDS011;55421;51.600;5.718;2023-04-26T10:16:10;3.60;;;2.20;;
68438;SDS011;55421;51.600;5.718;2023-04-26T10:18:37;7.10;;;2.30;;
68438;SDS011;55421;51.600;5.718;2023-04-26T10:21:07;4.20;;;2.20;;
68438;SDS011;55421;51.600;5.718;2023-04-26T10:23:39;5.30;;;2.20;;
68438;SDS011;55421;51.600;5.718;2023-04-26T10:29:23;5.50;;;2.30;;
68438;SDS011;55421;51.600;5.718;2023-04-26T10:34:27;4.30;;;2.20;;
68438;SDS011;55421;51.600;5.718;2023-04-26T10:37:12;5.30;;;2.40;;
68438;SDS011;55421;51.600;5.718;2023-04-26T10:39:44;7.00;;;2.30;;
68438;SDS011;55421;51.600;5.718;2023-04-26T10:42:21;2.90;;;2.30;;
68438;SDS011;55421;51.600;5.718;2023-04-26T10:44:57;6.50;;;2.30;;
68438;SDS011;55421;51.600;5.718;2023-04-26T10:47:47;4.30;;;2.90;;
68438;SDS011;55421;51.600;5.718;2023-04-26T10:50:13;3.30;;;2.00;;
68438;SDS011;55421;51.600;5.718;2023-04-26T10:55:39;2.20;;;2.00;;
68438;SDS011;55421;51.600;5.718;2023-04-26T11:01:16;3.60;;;2.10;;
68438;SDS011;55421;51.600;5.718;2023-04-26T11:04:06;5.40;;;2.50;;
68438;SDS011;55421;51.600;5.718;2023-04-26T11:06:46;2.80;;;1.80;;
68438;SDS011;55421;51.600;5.718;2023-04-26T11:09:36;4.80;;;2.10;;
68438;SDS011;55421;51.600;5.718;2023-04-26T11:12:12;3.40;;;2.10;;
68438;SDS011;55421;51.600;5.718;2023-04-26T11:14:44;3.10;;;2.00;;
68438;SDS011;55421;51.600;5.718;2023-04-26T11:17:13;7.40;;;2.30;;
68438;SDS011;55421;51.600;5.718;2023-04-26T11:19:40;4.00;;;2.50;;
68438;SDS011;55421;51.600;5.718;2023-04-26T11:22:07;5.30;;;2.20;;
68438;SDS011;55421;51.600;5.718;2023-04-26T11:24:34;3.50;;;2.30;;
68438;SDS011;55421;51.600;5.718;2023-04-26T11:27:08;4.00;;;2.30;;
68438;SDS011;55421;51.600;5.718;2023-04-26T11:29:35;4.70;;;2.60;;
68438;SDS011;55421;51.600;5.718;2023-04-26T11:32:03;4.20;;;2.40;;
68438;SDS011;55421;51.600;5.718;2023-04-26T11:34:36;3.40;;;2.20;;
68438;SDS011;55421;51.600;5.718;2023-04-26T11:37:07;3.30;;;2.40;;
68438;SDS011;55421;51.600;5.718;2023-04-26T11:39:34;5.70;;;2.20;;
68438;SDS011;55421;51.600;5.718;2023-04-26T11:42:10;3.80;;;2.30;;
68438;SDS011;55421;51.600;5.718;2023-04-26T11:44:38;4.40;;;2.70;;
68438;SDS011;55421;51.600;5.718;2023-04-26T11:47:06;3.20;;;2.30;;
68438;SDS011;55421;51.600;5.718;2023-04-26T11:49:35;5.30;;;2.00;;
68438;SDS011;55421;51.600;5.718;2023-04-26T11:52:03;4.60;;;2.30;;
68438;SDS011;55421;51.600;5.718;2023-04-26T11:54:33;4.90;;;2.50;;
68438;SDS011;55421;51.600;5.718;2023-04-26T11:57:12;4.60;;;2.30;;
68438;SDS011;55421;51.600;5.718;2023-04-26T11:59:39;3.60;;;2.20;;
68438;SDS011;55421;51.600;5.718;2023-04-26T12:02:06;5.90;;;2.20;;
68438;SDS011;55421;51.600;5.718;2023-04-26T12:04:33;5.60;;;2.60;;
68438;SDS011;55421;51.600;5.718;2023-04-26T12:06:59;4.30;;;2.30;;
68438;SDS011;55421;51.600;5.718;2023-04-26T12:09:30;5.60;;;2.90;;
68438;SDS011;55421;51.600;5.718;2023-04-26T12:12:01;3.40;;;2.50;;
68438;SDS011;55421;51.600;5.718;2023-04-26T12:14:36;5.50;;;2.80;;
68438;SDS011;55421;51.600;5.718;2023-04-26T12:17:04;5.50;;;2.80;;
68438;SDS011;55421;51.600;5.718;2023-04-26T12:19:39;4.40;;;2.20;;
68438;SDS011;55421;51.600;5.718;2023-04-26T12:22:07;6.10;;;2.90;;
68438;SDS011;55421;51.600;5.718;2023-04-26T12:24:34;5.50;;;2.50;;
68438;SDS011;55421;51.600;5.718;2023-04-26T12:27:03;4.00;;;2.40;;
68438;SDS011;55421;51.600;5.718;2023-04-26T12:29:32;4.00;;;1.90;;
68438;SDS011;55421;51.600;5.718;2023-04-26T12:32:00;3.50;;;1.80;;
68438;SDS011;55421;51.600;5.718;2023-04-26T12:34:27;6.10;;;2.90;;
68438;SDS011;55421;51.600;5.718;2023-04-26T12:36:54;4.80;;;2.70;;
68438;SDS011;55421;51.600;5.718;2023-04-26T12:39:20;5.60;;;2.90;;
68438;SDS011;55421;51.600;5.718;2023-04-26T12:41:47;4.40;;;2.60;;
68438;SDS011;55421;51.600;5.718;2023-04-26T12:44:14;3.50;;;2.20;;
68438;SDS011;55421;51.600;5.718;2023-04-26T12:46:41;4.80;;;2.80;;
68438;SDS011;55421;51.600;5.718;2023-04-26T12:49:07;5.40;;;3.10;;
68438;SDS011;55421;51.600;5.718;2023-04-26T12:51:34;5.20;;;3.10;;
68438;SDS011;55421;51.600;5.718;2023-04-26T12:54:00;8.20;;;3.70;;
68438;SDS011;55421;51.600;5.718;2023-04-26T12:56:28;7.40;;;3.50;;
68438;SDS011;55421;51.600;5.718;2023-04-26T12:58:55;6.00;;;3.80;;
68438;SDS011;55421;51.600;5.718;2023-04-26T13:01:22;4.20;;;2.90;;
68438;SDS011;55421;51.600;5.718;2023-04-26T13:03:48;5.20;;;3.30;;
68438;SDS011;55421;51.600;5.718;2023-04-26T13:06:15;5.40;;;3.40;;
68438;SDS011;55421;51.600;5.718;2023-04-26T13:08:41;5.90;;;3.00;;
68438;SDS011;55421;51.600;5.718;2023-04-26T13:11:08;4.40;;;2.90;;
68438;SDS011;55421;51.600;5.718;2023-04-26T13:13:34;5.70;;;3.20;;
68438;SDS011;55421;51.600;5.718;2023-04-26T13:16:01;6.50;;;3.90;;
68438;SDS011;55421;51.600;5.718;2023-04-26T13:18:28;6.30;;;3.80;;
68438;SDS011;55421;51.600;5.718;2023-04-26T13:20:54;7.50;;;3.60;;
68438;SDS011;55421;51.600;5.718;2023-04-26T13:23:21;7.40;;;3.50;;
68438;SDS011;55421;51.600;5.718;2023-04-26T13:25:47;30.60;;;12.80;;
68438;SDS011;55421;51.600;5.718;2023-04-26T13:28:14;6.70;;;3.80;;
68438;SDS011;55421;51.600;5.718;2023-04-26T13:30:40;10.00;;;4.00;;
68438;SDS011;55421;51.600;5.718;2023-04-26T13:33:07;8.00;;;3.90;;
68438;SDS011;55421;51.600;5.718;2023-04-26T13:35:34;7.30;;;3.80;;
68438;SDS011;55421;51.600;5.718;2023-04-26T13:38:01;14.90;;;6.40;;
68438;SDS011;55421;51.600;5.718;2023-04-26T13:40:29;11.90;;;5.10;;
68438;SDS011;55421;51.600;5.718;2023-04-26T13:42:56;6.50;;;3.60;;
68438;SDS011;55421;51.600;5.718;2023-04-26T13:45:22;13.50;;;4.30;;
68438;SDS011;55421;51.600;5.718;2023-04-26T13:47:49;4.50;;;3.70;;
68438;SDS011;55421;51.600;5.718;2023-04-26T13:50:16;8.00;;;3.80;;
68438;SDS011;55421;51.600;5.718;2023-04-26T13:52:43;8.60;;;4.50;;
68438;SDS011;55421;51.600;5.718;2023-04-26T13:55:10;8.50;;;4.30;;
68438;SDS011;55421;51.600;5.718;2023-04-26T13:57:36;6.90;;;4.40;;
68438;SDS011;55421;51.600;5.718;2023-04-26T14:00:03;7.90;;;3.30;;
68438;SDS011;55421;51.600;5.718;2023-04-26T14:02:31;10.40;;;3.80;;
68438;SDS011;55421;51.600;5.718;2023-04-26T14:04:58;6.40;;;3.80;;
68438;SDS011;55421;51.600;5.718;2023-04-26T14:07:24;5.50;;;3.80;;
68438;SDS011;55421;51.600;5.718;2023-04-26T14:09:51;6.80;;;3.90;;
68438;SDS011;55421;51.600;5.718;2023-04-26T14:12:17;8.40;;;4.10;;
68438;SDS011;55421;51.600;5.718;2023-04-26T14:14:44;6.20;;;3.80;;
68438;SDS011;55421;51.600;5.718;2023-04-26T14:17:12;7.00;;;4.20;;
68438;SDS011;55421;51.600;5.718;2023-04-26T14:19:39;6.40;;;4.20;;
68438;SDS011;55421;51.600;5.718;2023-04-26T14:22:05;8.30;;;4.30;;
68438;SDS011;55421;51.600;5.718;2023-04-26T14:24:32;5.90;;;3.50;;
68438;SDS011;55421;51.600;5.718;2023-04-26T14:26:59;5.80;;;3.40;;
68438;SDS011;55421;51.600;5.718;2023-04-26T14:29:26;7.40;;;4.20;;
68438;SDS011;55421;51.600;5.718;2023-04-26T14:31:53;7.90;;;4.20;;
68438;SDS011;55421;51.600;5.718;2023-04-26T14:34:19;11.20;;;4.70;;
68438;SDS011;55421;51.600;5.718;2023-04-26T14:36:47;8.40;;;3.80;;
68438;SDS011;55421;51.600;5.718;2023-04-26T14:39:14;6.40;;;4.20;;
68438;SDS011;55421;51.600;5.718;2023-04-26T14:41:41;7.40;;;4.40;;
68438;SDS011;55421;51.600;5.718;2023-04-26T14:44:09;6.10;;;4.20;;
68438;SDS011;55421;51.600;5.718;2023-04-26T14:46:36;6.10;;;3.80;;
68438;SDS011;55421;51.600;5.718;2023-04-26T14:49:02;9.40;;;4.60;;
68438;SDS011;55421;51.600;5.718;2023-04-26T14:51:29;7.80;;;4.20;;
68438;SDS011;55421;51.600;5.718;2023-04-26T14:53:57;7.80;;;4.50;;
68438;SDS011;55421;51.600;5.718;2023-04-26T14:56:23;7.60;;;4.30;;
68438;SDS011;55421;51.600;5.718;2023-04-26T14:58:50;8.60;;;4.40;;
68438;SDS011;55421;51.600;5.718;2023-04-26T15:01:16;10.20;;;4.10;;
68438;SDS011;55421;51.600;5.718;2023-04-26T15:03:43;5.30;;;3.70;;